Time;durP1;ratioP1;P1;durP2;ratioP2;P2;SDS_P1;SDS_P2;PMS_P1;PMS_P2;Temp;Humidity;BMP_temperature;BMP_pressure;BME280_temperature;BME280_humidity;BME280_pressure;Samples;Min_cycle;Max_cycle;Signal;HPM_P1;HPM_P2
2023/12/20 00:00:29;;;;;;;;;;;;;;;-1.04;100.00;95663.69;5138400;27;969;-58
2023/12/20 00:02:55;;;;;;;;;;;;;;;-1.06;100.00;95658.50;5138341;27;1918;-57
2023/12/20 00:05:22;;;;;;;;;;;;;;;-1.16;100.00;95661.66;5138124;27;1059;-58
2023/12/20 00:07:47;;;;;;;;;;;;;;;-1.17;100.00;95658.19;5138162;27;1035;-58
2023/12/20 00:10:14;;;;;;;;;;;;;;;-1.08;100.00;95657.75;5138082;27;976;-57
2023/12/20 00:12:40;;;;;;;;;;;;;;;-1.00;100.00;95650.31;5137810;27;1119;-57
2023/12/20 00:15:06;;;;;;;;;;;;;;;-1.07;100.00;95643.66;5138013;27;1032;-58
2023/12/20 00:17:32;;;;;;;;;;;;;;;-1.14;100.00;95644.06;5137916;27;1063;-57
2023/12/20 00:19:58;;;;;;;;;;;;;;;-1.13;100.00;95643.16;5137816;27;1052;-58
2023/12/20 00:22:24;;;;;;;;;;;;;;;-1.11;100.00;95636.88;5137661;27;1308;-57
2023/12/20 00:24:50;;;;;;;;;;;;;;;-1.06;100.00;95641.91;5126207;27;1906;-57
2023/12/20 00:27:16;;;;;;;;;;;;;;;-1.12;100.00;95634.34;5116959;28;1092;-58
2023/12/20 00:29:47;;;;;;;;;;;;;;;-1.14;100.00;95641.44;5116884;28;902;-58
2023/12/20 00:32:13;;;;;;;;;;;;;;;-1.01;100.00;95634.63;5117080;28;961;-57
2023/12/20 00:34:39;;;;;;;;;;;;;;;-0.93;100.00;95631.59;5117356;28;974;-58
2023/12/20 00:37:05;;;;;;;;;;;;;;;-0.94;100.00;95625.53;5116987;28;1012;-57
2023/12/20 00:39:32;;;;;;;;;;;;;;;-1.01;100.00;95627.59;5116971;28;973;-58
2023/12/20 00:41:58;;;;;;;;;;;;;;;-1.08;100.00;95628.88;5116654;28;1045;-57
2023/12/20 00:44:24;;;;;;;;;;;;;;;-1.01;100.00;95619.72;5116550;28;1898;-57
2023/12/20 00:46:51;;;;;;;;;;;;;;;-0.86;100.00;95617.25;5116955;28;1038;-57
2023/12/20 00:49:17;;;;;;;;;;;;;;;-0.84;100.00;95613.59;5116814;28;999;-58
2023/12/20 00:51:43;;;;;;;;;;;;;;;-1.11;100.00;95615.88;5116616;28;1052;-58
2023/12/20 00:54:09;;;;;;;;;;;;;;;-1.07;100.00;95611.34;5116662;28;1442;-58
2023/12/20 00:56:35;;;;;;;;;;;;;;;-0.97;100.00;95612.53;5115825;28;1000;-58
2023/12/20 00:59:01;;;;;;;;;;;;;;;-0.89;100.00;95614.75;5116739;28;992;-58
2023/12/20 01:01:27;;;;;;;;;;;;;;;-0.97;100.00;95612.53;5116486;28;1041;-57
2023/12/20 01:04:12;;;;;;;;;;;;;;;-0.88;100.00;95608.59;5116164;28;1914;-58
2023/12/20 01:06:38;;;;;;;;;;;;;;;-0.81;100.00;95602.09;5116281;28;990;-58
2023/12/20 01:09:04;;;;;;;;;;;;;;;-0.67;100.00;95591.69;5116507;28;997;-58
2023/12/20 01:11:30;;;;;;;;;;;;;;;-0.60;100.00;95595.69;5116278;28;1023;-58
2023/12/20 01:13:56;;;;;;;;;;;;;;;-0.75;100.00;95596.53;5116401;28;1052;-58
2023/12/20 01:16:22;;;;;;;;;;;;;;;-0.67;100.00;95596.94;5116269;28;982;-58
2023/12/20 01:18:49;;;;;;;;;;;;;;;-0.69;100.00;95596.19;5116039;28;1040;-58
2023/12/20 01:21:15;;;;;;;;;;;;;;;-0.69;100.00;95585.69;5115913;28;1033;-57
2023/12/20 01:23:41;;;;;;;;;;;;;;;-0.75;100.00;95578.13;5117074;27;1984;-58
2023/12/20 01:26:07;;;;;;;;;;;;;;;-0.68;100.00;95574.25;5136841;27;968;-58
2023/12/20 01:28:33;;;;;;;;;;;;;;;-0.68;100.00;95570.78;5136451;27;973;-57
2023/12/20 01:30:59;;;;;;;;;;;;;;;-0.69;100.00;95564.66;5136656;27;1068;-58
2023/12/20 01:33:25;;;;;;;;;;;;;;;-0.68;100.00;95561.13;5136430;27;1053;-58
2023/12/20 01:35:51;;;;;;;;;;;;;;;-0.81;100.00;95560.94;5136214;27;1049;-58
2023/12/20 01:38:18;;;;;;;;;;;;;;;-0.81;100.00;95557.47;5136317;27;977;-57
2023/12/20 01:40:44;;;;;;;;;;;;;;;-0.81;100.00;95555.69;5136382;27;1068;-57
2023/12/20 01:43:12;;;;;;;;;;;;;;;-0.81;100.00;95555.69;5135776;27;1992;-57
2023/12/20 01:45:38;;;;;;;;;;;;;;;-0.72;100.00;95546.47;5136235;27;1080;-58
2023/12/20 01:48:05;;;;;;;;;;;;;;;-0.70;100.00;95544.59;5135878;27;1036;-57
2023/12/20 01:50:31;;;;;;;;;;;;;;;-0.97;100.00;95544.28;5136073;27;1092;-57
2023/12/20 01:53:00;;;;;;;;;;;;;;;-0.98;100.00;95543.44;5135791;27;1095;-57
2023/12/20 01:55:31;;;;;;;;;;;;;;;-1.27;100.00;95533.63;5135947;27;1161;-57
2023/12/20 01:57:57;;;;;;;;;;;;;;;-1.40;100.00;95521.16;5135946;27;1047;-57
2023/12/20 02:00:26;;;;;;;;;;;;;;;-1.16;100.00;95526.06;5135896;27;1067;-57
2023/12/20 02:02:53;;;;;;;;;;;;;;;-1.08;100.00;95516.00;5135981;27;958;-57
2023/12/20 02:05:20;;;;;;;;;;;;;;;-1.14;100.00;95513.69;5135462;27;1981;-57
2023/12/20 02:07:46;;;;;;;;;;;;;;;-1.25;100.00;95516.03;5134850;27;1035;-57
2023/12/20 02:10:12;;;;;;;;;;;;;;;-1.43;100.00;95510.81;5135651;27;972;-57
2023/12/20 02:12:38;;;;;;;;;;;;;;;-1.50;100.00;95517.34;5135725;27;1126;-57
2023/12/20 02:15:05;;;;;;;;;;;;;;;-1.54;100.00;95507.06;5135540;27;1039;-58
2023/12/20 02:17:31;;;;;;;;;;;;;;;-1.52;100.00;95502.59;5135353;27;1024;-57
2023/12/20 02:19:57;;;;;;;;;;;;;;;-1.69;100.00;95499.09;5135569;27;1052;-57
2023/12/20 02:22:23;;;;;;;;;;;;;;;-1.73;100.00;95497.50;5135227;27;989;-58
2023/12/20 02:24:49;;;;;;;;;;;;;;;-1.73;100.00;95494.91;5124186;27;2007;-57
2023/12/20 02:27:17;;;;;;;;;;;;;;;-1.84;100.00;95484.97;5096471;28;1171;-57
2023/12/20 02:29:43;;;;;;;;;;;;;;;-1.80;100.00;95489.13;5114578;28;1103;-58
2023/12/20 02:32:09;;;;;;;;;;;;;;;-1.71;100.00;95490.41;5114945;28;1016;-57
2023/12/20 02:34:35;;;;;;;;;;;;;;;-1.43;100.00;95489.84;5096578;28;977;-57
2023/12/20 02:37:01;;;;;;;;;;;;;;;-1.44;100.00;95490.78;5114542;28;969;-57
2023/12/20 02:39:27;;;;;;;;;;;;;;;-1.45;100.00;95480.38;5114650;28;1000;-57
2023/12/20 02:41:53;;;;;;;;;;;;;;;-1.45;100.00;95475.97;5114690;28;1049;-57
2023/12/20 02:44:19;;;;;;;;;;;;;;;-1.50;100.00;95478.00;5114488;28;1914;-57
2023/12/20 02:46:45;;;;;;;;;;;;;;;-1.66;100.00;95466.59;5114771;28;973;-57
2023/12/20 02:49:11;;;;;;;;;;;;;;;-1.82;100.00;95471.75;5114395;28;1064;-57
2023/12/20 02:51:40;;;;;;;;;;;;;;;-1.96;100.00;95467.22;5095865;28;969;-57
2023/12/20 02:54:06;;;;;;;;;;;;;;;-1.98;100.00;95464.69;5114023;28;1153;-57
2023/12/20 02:56:32;;;;;;;;;;;;;;;-1.98;100.00;95467.31;5113854;28;1048;-57
2023/12/20 02:58:58;;;;;;;;;;;;;;;-2.04;100.00;95466.78;5114124;28;1057;-57
2023/12/20 03:01:24;;;;;;;;;;;;;;;-1.94;100.00;95468.00;5114058;28;974;-57
2023/12/20 03:03:50;;;;;;;;;;;;;;;-1.97;100.00;95457.69;5113786;28;1990;-57
2023/12/20 03:06:17;;;;;;;;;;;;;;;-2.00;100.00;95450.81;5113634;28;1000;-57
2023/12/20 03:08:43;;;;;;;;;;;;;;;-2.03;100.00;95452.75;5113824;28;1079;-57
2023/12/20 03:11:09;;;;;;;;;;;;;;;-1.95;100.00;95455.84;5113669;28;1084;-57
2023/12/20 03:13:35;;;;;;;;;;;;;;;-1.88;100.00;95451.97;5113579;28;1032;-57
2023/12/20 03:16:01;;;;;;;;;;;;;;;-1.65;100.00;95447.31;5113736;28;982;-57
2023/12/20 03:18:28;;;;;;;;;;;;;;;-1.77;100.00;95454.88;5113402;28;977;-57
2023/12/20 03:20:54;;;;;;;;;;;;;;;-1.77;100.00;95454.88;5113494;28;1024;-57
2023/12/20 03:23:20;;;;;;;;;;;;;;;-1.57;100.00;95455.63;5113897;28;1983;-57
2023/12/20 03:25:46;;;;;;;;;;;;;;;-1.61;100.00;95449.69;5113359;28;1556;-57
2023/12/20 03:28:14;;;;;;;;;;;;;;;-1.57;100.00;95442.53;5113215;28;1286;-57
2023/12/20 03:30:40;;;;;;;;;;;;;;;-1.47;100.00;95446.34;5113593;28;1056;-57
2023/12/20 03:33:07;;;;;;;;;;;;;;;-1.36;100.00;95444.94;5113477;28;1060;-57
2023/12/20 03:35:33;;;;;;;;;;;;;;;-1.48;100.00;95446.41;5113534;28;1064;-57
2023/12/20 03:38:00;;;;;;;;;;;;;;;-1.51;100.00;95446.59;5113706;28;1000;-57
2023/12/20 03:40:26;;;;;;;;;;;;;;;-1.38;100.00;95442.41;5113336;28;1044;-57
2023/12/20 03:42:52;;;;;;;;;;;;;;;-1.21;100.00;95441.50;5113660;28;988;-56
2023/12/20 03:45:18;;;;;;;;;;;;;;;-1.28;100.00;95448.00;5113323;28;1984;-57
2023/12/20 03:47:44;;;;;;;;;;;;;;;-1.47;100.00;95438.47;5113398;28;991;-57
2023/12/20 03:50:10;;;;;;;;;;;;;;;-1.48;100.00;95442.03;5113243;28;987;-57
2023/12/20 03:52:35;;;;;;;;;;;;;;;-1.24;100.00;95447.75;5113575;28;982;-57
2023/12/20 03:55:01;;;;;;;;;;;;;;;-1.19;100.00;95442.25;5112916;28;1236;-57
2023/12/20 03:57:28;;;;;;;;;;;;;;;-1.08;100.00;95436.41;5113281;28;984;-57
2023/12/20 03:59:54;;;;;;;;;;;;;;;-1.16;100.00;95433.38;5113468;28;969;-57
2023/12/20 04:02:19;;;;;;;;;;;;;;;-1.39;100.00;95430.19;5113417;28;1052;-57
2023/12/20 04:04:45;;;;;;;;;;;;;;;-1.51;100.00;95429.09;5113030;28;1976;-56
2023/12/20 04:07:11;;;;;;;;;;;;;;;-1.67;100.00;95429.06;5113035;28;981;-57
2023/12/20 04:09:37;;;;;;;;;;;;;;;-1.74;100.00;95422.44;5113101;28;918;-57
2023/12/20 04:12:05;;;;;;;;;;;;;;;-1.70;100.00;95421.34;5113242;28;1052;-57
2023/12/20 04:14:30;;;;;;;;;;;;;;;-1.70;100.00;95423.13;5112990;28;1108;-57
2023/12/20 04:16:57;;;;;;;;;;;;;;;-1.63;100.00;95420.09;5113304;28;1072;-57
2023/12/20 04:19:22;;;;;;;;;;;;;;;-1.44;100.00;95417.34;5113224;28;976;-57
2023/12/20 04:21:48;;;;;;;;;;;;;;;-1.52;100.00;95416.88;5113267;28;981;-57
2023/12/20 04:24:14;;;;;;;;;;;;;;;-1.45;100.00;95410.38;5118759;27;1906;-57
2023/12/20 04:26:40;;;;;;;;;;;;;;;-1.43;100.00;95412.94;5133845;28;965;-57
2023/12/20 04:29:06;;;;;;;;;;;;;;;-1.46;100.00;95413.97;5133974;28;1041;-57
2023/12/20 04:31:32;;;;;;;;;;;;;;;-1.47;100.00;95412.25;5135120;27;1028;-57
2023/12/20 04:33:58;;;;;;;;;;;;;;;-1.36;100.00;95406.44;5136974;27;1129;-57
2023/12/20 04:36:26;;;;;;;;;;;;;;;-1.32;100.00;95401.88;5137287;27;1124;-57
2023/12/20 04:38:53;;;;;;;;;;;;;;;-1.42;100.00;95397.13;5137276;27;980;-57
2023/12/20 04:41:19;;;;;;;;;;;;;;;-1.43;100.00;95399.81;5137010;27;1014;-56
2023/12/20 04:43:45;;;;;;;;;;;;;;;-1.57;100.00;95392.69;5136892;27;1905;-56
2023/12/20 04:46:11;;;;;;;;;;;;;;;-1.66;100.00;95399.28;5137162;27;972;-56
2023/12/20 04:48:37;;;;;;;;;;;;;;;-1.73;100.00;95392.66;5118920;27;1051;-55
2023/12/20 04:51:03;;;;;;;;;;;;;;;-1.61;100.00;95396.41;5137027;27;1067;-57
2023/12/20 04:53:29;;;;;;;;;;;;;;;-1.79;100.00;95385.13;5136869;27;1039;-56
2023/12/20 04:55:55;;;;;;;;;;;;;;;-1.83;100.00;95379.19;5136985;27;1157;-56
2023/12/20 04:58:21;;;;;;;;;;;;;;;-1.62;100.00;95379.81;5136665;27;1044;-56
2023/12/20 05:00:47;;;;;;;;;;;;;;;-1.60;100.00;95382.38;5136844;27;1272;-56
2023/12/20 05:03:13;;;;;;;;;;;;;;;-1.64;100.00;95386.09;5136729;27;1909;-56
2023/12/20 05:05:39;;;;;;;;;;;;;;;-1.52;100.00;95380.16;5136848;27;980;-57
2023/12/20 05:08:05;;;;;;;;;;;;;;;-1.35;100.00;95378.41;5136852;27;1056;-55
2023/12/20 05:10:31;;;;;;;;;;;;;;;-1.13;100.00;95370.22;5136579;27;1044;-56
2023/12/20 05:12:57;;;;;;;;;;;;;;;-1.07;100.00;95369.88;5136901;27;1065;-55
2023/12/20 05:15:23;;;;;;;;;;;;;;;-1.21;100.00;95371.50;5136452;27;1032;-56
2023/12/20 05:17:49;;;;;;;;;;;;;;;-1.45;100.00;95371.06;5136331;27;920;-56
2023/12/20 05:20:15;;;;;;;;;;;;;;;-1.56;100.00;95368.16;5136236;27;992;-57
2023/12/20 05:22:41;;;;;;;;;;;;;;;-1.57;100.00;95367.31;5136214;27;1084;-56
2023/12/20 05:25:07;;;;;;;;;;;;;;;-1.49;100.00;95364.28;5135930;27;2000;-57
2023/12/20 05:27:33;;;;;;;;;;;;;;;-1.49;100.00;95359.03;5125088;27;1090;-57
2023/12/20 05:29:59;;;;;;;;;;;;;;;-1.42;100.00;95357.78;5115514;28;961;-57
2023/12/20 05:32:25;;;;;;;;;;;;;;;-1.45;100.00;95355.31;5115508;28;969;-58
2023/12/20 05:34:51;;;;;;;;;;;;;;;-1.48;100.00;95354.63;5114585;28;1041;-57
2023/12/20 05:37:17;;;;;;;;;;;;;;;-1.58;100.00;95347.25;5114538;28;1046;-57
2023/12/20 05:39:43;;;;;;;;;;;;;;;-1.62;100.00;95347.50;5115686;28;1041;-57
2023/12/20 05:42:09;;;;;;;;;;;;;;;-1.70;100.00;95347.09;5115735;28;1051;-58
2023/12/20 05:44:36;;;;;;;;;;;;;;;-1.60;100.00;95343.03;5115477;28;1980;-58
2023/12/20 05:47:02;;;;;;;;;;;;;;;-1.59;100.00;95347.38;5115269;27;977;-56
2023/12/20 05:49:28;;;;;;;;;;;;;;;-1.63;100.00;95344.06;5115452;28;992;-56
2023/12/20 05:51:54;;;;;;;;;;;;;;;-1.69;100.00;95340.91;5115327;28;1044;-57
2023/12/20 05:54:21;;;;;;;;;;;;;;;-1.70;100.00;95339.22;5114936;28;1197;-56
2023/12/20 05:56:47;;;;;;;;;;;;;;;-1.81;100.00;95339.78;5115209;28;976;-57
2023/12/20 05:59:13;;;;;;;;;;;;;;;-1.63;100.00;95337.94;5114941;28;1045;-57
2023/12/20 06:01:39;;;;;;;;;;;;;;;-1.79;100.00;95340.56;5114955;28;962;-56
2023/12/20 06:04:05;;;;;;;;;;;;;;;-1.77;100.00;95342.16;5114802;28;1910;-57
2023/12/20 06:06:31;;;;;;;;;;;;;;;-1.63;100.00;95336.19;5114811;28;1061;-57
2023/12/20 06:08:57;;;;;;;;;;;;;;;-1.54;100.00;95334.81;5115054;28;995;-57
2023/12/20 06:11:23;;;;;;;;;;;;;;;-1.57;100.00;95335.84;5114741;28;1044;-56
2023/12/20 06:13:51;;;;;;;;;;;;;;;-1.56;100.00;95326.19;5096794;28;981;-57
2023/12/20 06:16:18;;;;;;;;;;;;;;;-1.51;100.00;95336.47;5096811;28;1069;-56
2023/12/20 06:18:44;;;;;;;;;;;;;;;-1.54;100.00;95334.00;5115072;28;982;-57
2023/12/20 06:21:12;;;;;;;;;;;;;;;-1.51;100.00;95337.28;5115049;28;1007;-58
2023/12/20 06:23:39;;;;;;;;;;;;;;;-1.50;100.00;95330.25;5115343;27;1961;-58
2023/12/20 06:26:06;;;;;;;;;;;;;;;-1.40;100.00;95329.69;5117353;27;989;-57
2023/12/20 06:28:32;;;;;;;;;;;;;;;-1.26;100.00;95339.41;5135021;27;976;-58
2023/12/20 06:30:58;;;;;;;;;;;;;;;-1.20;100.00;95338.22;5116758;27;1142;-57
2023/12/20 06:33:24;;;;;;;;;;;;;;;-1.28;100.00;95336.03;5134899;27;1060;-58
2023/12/20 06:35:50;;;;;;;;;;;;;;;-1.35;100.00;95329.41;5135200;27;1063;-58
2023/12/20 06:38:17;;;;;;;;;;;;;;;-1.46;100.00;95335.28;5134958;27;1039;-58
2023/12/20 06:40:43;;;;;;;;;;;;;;;-1.32;100.00;95324.00;5134827;27;1031;-58
2023/12/20 06:43:09;;;;;;;;;;;;;;;-1.41;100.00;95320.09;5134708;27;1909;-57
2023/12/20 06:45:35;;;;;;;;;;;;;;;-1.44;100.00;95319.44;5134768;27;984;-57
2023/12/20 06:48:02;;;;;;;;;;;;;;;-1.31;100.00;95337.97;5134946;27;1011;-58
2023/12/20 06:50:28;;;;;;;;;;;;;;;-1.12;100.00;95329.91;5134904;27;1064;-57
2023/12/20 06:52:54;;;;;;;;;;;;;;;-1.00;100.00;95330.09;5134637;27;1100;-58
2023/12/20 06:55:20;;;;;;;;;;;;;;;-0.88;99.99;95325.91;5115692;27;1223;-58
2023/12/20 06:57:46;;;;;;;;;;;;;;;-0.76;100.00;95326.97;5134620;27;929;-57
2023/12/20 07:00:12;;;;;;;;;;;;;;;-0.67;98.48;95323.00;5116169;27;953;-58
2023/12/20 07:02:38;;;;;;;;;;;;;;;-0.50;96.88;95322.84;5134442;27;1028;-57
2023/12/20 07:05:04;;;;;;;;;;;;;;;-0.60;97.08;95319.09;5134317;27;2000;-57
2023/12/20 07:07:30;;;;;;;;;;;;;;;-0.75;97.88;95315.56;5134572;27;1037;-58
2023/12/20 07:09:56;;;;;;;;;;;;;;;-0.80;98.50;95322.84;5134365;27;1036;-58
2023/12/20 07:12:22;;;;;;;;;;;;;;;-0.89;99.33;95321.63;5134534;27;984;-57
2023/12/20 07:14:48;;;;;;;;;;;;;;;-0.87;98.25;95319.75;5134408;27;1000;-56
2023/12/20 07:17:15;;;;;;;;;;;;;;;-0.69;99.28;95317.81;5134498;27;1098;-56
2023/12/20 07:19:41;;;;;;;;;;;;;;;-0.56;98.36;95309.25;5134138;27;1107;-56
2023/12/20 07:22:08;;;;;;;;;;;;;;;-0.42;96.73;95309.25;5134236;27;1103;-56
2023/12/20 07:24:34;;;;;;;;;;;;;;;-0.34;96.09;95301.78;5125063;27;1906;-56
2023/12/20 07:27:00;;;;;;;;;;;;;;;-0.57;96.33;95294.41;5113846;28;1036;-56
2023/12/20 07:29:26;;;;;;;;;;;;;;;-0.84;98.10;95297.72;5113742;28;992;-57
2023/12/20 07:31:53;;;;;;;;;;;;;;;-0.96;99.02;95286.13;5113482;28;1103;-56
2023/12/20 07:34:20;;;;;;;;;;;;;;;-1.00;100.00;95287.25;5095664;28;1186;-55
2023/12/20 07:36:46;;;;;;;;;;;;;;;-1.13;99.43;95281.00;5113524;28;1040;-56
2023/12/20 07:39:14;;;;;;;;;;;;;;;-1.21;100.00;95292.78;5113541;28;1041;-56
2023/12/20 07:41:40;;;;;;;;;;;;;;;-1.29;100.00;95281.00;5113424;28;1155;-56
2023/12/20 07:44:06;;;;;;;;;;;;;;;-1.12;100.00;95278.31;5113377;28;1984;-56
2023/12/20 07:46:32;;;;;;;;;;;;;;;-1.13;100.00;95284.47;5113046;28;1048;-56
2023/12/20 07:48:59;;;;;;;;;;;;;;;-0.99;100.00;95288.94;5113566;28;1027;-56
2023/12/20 07:51:25;;;;;;;;;;;;;;;-0.91;100.00;95278.84;5113480;28;1045;-56
2023/12/20 07:53:51;;;;;;;;;;;;;;;-0.92;100.00;95276.31;5113363;28;1161;-56
2023/12/20 07:56:19;;;;;;;;;;;;;;;-0.73;100.00;95276.09;5113220;28;1049;-57
2023/12/20 07:58:45;;;;;;;;;;;;;;;-0.72;99.58;95280.38;5113356;28;1001;-56
2023/12/20 08:01:12;;;;;;;;;;;;;;;-0.75;99.66;95276.19;5114092;28;958;-56
2023/12/20 08:03:38;;;;;;;;;;;;;;;-0.82;99.00;95269.59;5113315;28;1914;-57
2023/12/20 08:06:04;;;;;;;;;;;;;;;-0.92;99.96;95271.91;5114494;28;1054;-57
2023/12/20 08:08:30;;;;;;;;;;;;;;;-0.86;100.00;95274.16;5117257;28;1112;-57
2023/12/20 08:10:59;;;;;;;;;;;;;;;-0.69;100.00;95261.84;5117468;28;1031;-57
2023/12/20 08:13:26;;;;;;;;;;;;;;;-0.64;98.52;95263.25;5117295;28;977;-56
2023/12/20 08:15:56;;;;;;;;;;;;;;;-0.58;100.00;95266.47;5117354;28;1072;-57
2023/12/20 08:18:22;;;;;;;;;;;;;;;-0.46;100.00;95255.22;5116978;28;1107;-56
2023/12/20 08:20:48;;;;;;;;;;;;;;;-0.46;99.63;95255.22;5117116;28;977;-56
2023/12/20 08:23:15;;;;;;;;;;;;;;;-0.37;99.00;95251.22;5116885;28;1995;-56
2023/12/20 08:25:41;;;;;;;;;;;;;;;-0.43;99.71;95249.78;5116794;28;1068;-57
2023/12/20 08:28:07;;;;;;;;;;;;;;;-0.36;99.58;95251.13;5117008;28;974;-57
2023/12/20 08:30:33;;;;;;;;;;;;;;;-0.14;97.60;95252.44;5116992;28;970;-57
2023/12/20 08:33:02;;;;;;;;;;;;;;;-0.34;97.32;95245.75;5116882;28;1047;-56
2023/12/20 08:35:28;;;;;;;;;;;;;;;-0.35;98.25;95246.72;5116605;28;1029;-55
2023/12/20 08:37:54;;;;;;;;;;;;;;;-0.32;98.90;95246.50;5116801;28;982;-56
2023/12/20 08:40:20;;;;;;;;;;;;;;;-0.32;99.02;95236.84;5116802;28;983;-57
2023/12/20 08:42:46;;;;;;;;;;;;;;;-0.26;98.63;95233.00;5116528;28;949;-57
2023/12/20 08:45:12;;;;;;;;;;;;;;;-0.02;98.22;95222.75;5116525;28;1909;-56
2023/12/20 08:47:40;;;;;;;;;;;;;;;-0.11;96.60;95224.19;5116688;28;985;-56
2023/12/20 08:50:07;;;;;;;;;;;;;;;-0.04;97.92;95219.38;5116516;28;1003;-56
2023/12/20 08:52:33;;;;;;;;;;;;;;;-0.03;98.00;95214.03;5116535;28;1060;-56
2023/12/20 08:54:59;;;;;;;;;;;;;;;0.02;98.12;95211.13;5116528;28;1165;-56
2023/12/20 08:57:25;;;;;;;;;;;;;;;0.00;98.17;95202.50;5116091;28;1107;-55
2023/12/20 08:59:51;;;;;;;;;;;;;;;0.18;98.24;95198.69;5116499;28;962;-56
2023/12/20 09:02:17;;;;;;;;;;;;;;;0.14;97.66;95197.22;5116293;28;976;-55
2023/12/20 09:04:43;;;;;;;;;;;;;;;0.21;97.43;95188.91;5116357;28;1934;-56
2023/12/20 09:07:25;;;;;;;;;;;;;;;0.23;97.01;95187.91;5116207;28;988;-56
2023/12/20 09:09:51;;;;;;;;;;;;;;;0.18;98.81;95188.19;5115950;28;1115;-56
2023/12/20 09:14:52;;;;;;;;;;;;;;;0.07;98.43;95174.88;5130973;27;1308748;-56
2023/12/20 09:17:19;;;;;;;;;;;;;;;-0.03;98.07;95171.13;5173347;27;1000;-57
2023/12/20 09:19:45;;;;;;;;;;;;;;;0.10;98.72;95163.34;5173112;27;1036;-57
2023/12/20 09:22:11;;;;;;;;;;;;;;;0.16;98.66;95158.50;5173109;27;932;-57
2023/12/20 09:24:38;;;;;;;;;;;;;;;0.18;99.09;95154.00;5172873;27;1027;-56
2023/12/20 09:27:07;;;;;;;;;;;;;;;0.22;99.70;95144.13;5173142;27;971;-56
2023/12/20 09:29:33;;;;;;;;;;;;;;;0.27;98.95;95134.16;5172734;27;1247;-57
2023/12/20 09:31:59;;;;;;;;;;;;;;;0.34;98.72;95129.34;5173072;27;1059;-57
2023/12/20 09:34:28;;;;;;;;;;;;;;;0.38;100.00;95131.69;5172606;27;1913;-56
2023/12/20 09:36:54;;;;;;;;;;;;;;;0.56;97.58;95132.25;5172929;27;1051;-57
2023/12/20 09:39:20;;;;;;;;;;;;;;;0.44;98.17;95130.44;5172780;27;1032;-57
2023/12/20 09:42:07;;;;;;;;;;;;;;;0.48;98.03;95116.13;5172531;27;1028;-57
2023/12/20 09:44:34;;;;;;;;;;;;;;;0.51;97.67;95125.59;5172414;27;1156;-57
2023/12/20 09:47:02;;;;;;;;;;;;;;;0.48;97.25;95117.94;5172785;27;972;-57
2023/12/20 09:49:28;;;;;;;;;;;;;;;0.61;99.20;95113.56;5172679;27;1040;-57
2023/12/20 09:51:54;;;;;;;;;;;;;;;0.47;98.98;95101.28;5172310;27;1281;-57
2023/12/20 09:54:21;;;;;;;;;;;;;;;0.77;98.70;95094.94;5167336;27;1916;-57
2023/12/20 09:56:47;;;;;;;;;;;;;;;0.49;97.77;95095.94;5151739;27;1044;-57
2023/12/20 09:59:14;;;;;;;;;;;;;;;0.47;99.72;95087.28;5151417;27;1027;-57
2023/12/20 10:01:40;;;;;;;;;;;;;;;0.61;100.00;95083.75;5151703;27;984;-57
2023/12/20 10:04:08;;;;;;;;;;;;;;;0.47;100.00;95077.59;5151391;27;1020;-56
2023/12/20 10:06:39;;;;;;;;;;;;;;;0.74;100.00;95067.03;5151465;27;992;-57
2023/12/20 10:09:05;;;;;;;;;;;;;;;0.80;99.73;95060.53;5151553;27;978;-57
2023/12/20 10:11:31;;;;;;;;;;;;;;;0.78;99.54;95055.34;5151618;27;956;-56
2023/12/20 10:14:01;;;;;;;;;;;;;;;1.02;98.87;95043.25;5150984;27;1990;-56
2023/12/20 10:16:27;;;;;;;;;;;;;;;1.15;98.41;95044.91;5151047;27;1047;-56
2023/12/20 10:18:54;;;;;;;;;;;;;;;1.16;97.47;95037.88;5151022;27;1087;-55
2023/12/20 10:21:20;;;;;;;;;;;;;;;1.08;98.38;95032.28;5150990;27;1051;-55
2023/12/20 10:23:46;;;;;;;;;;;;;;;1.14;99.23;95035.34;5151272;27;1039;-55
2023/12/20 10:26:22;;;;;;;;;;;;;;;1.26;98.20;95028.38;5137833;27;1057;-55
2023/12/20 10:28:52;;;;;;;;;;;;;;;1.50;97.03;95024.94;5137069;27;1025;-55
2023/12/20 10:31:34;;;;;;;;;;;;;;;1.35;97.71;95022.47;5136961;27;1064;-55
2023/12/20 10:34:01;;;;;;;;;;;;;;;1.09;98.23;95013.75;5137269;27;1997;-55
2023/12/20 10:36:32;;;;;;;;;;;;;;;1.06;99.26;95006.06;5136823;27;1075;-55
2023/12/20 10:42:21;;;;;;;;;;;;;;;1.24;97.67;94998.69;5137177;27;761;-55
2023/12/20 10:44:47;;;;;;;;;;;;;;;1.23;98.62;94990.88;5137273;27;972;-55
2023/12/20 10:47:13;;;;;;;;;;;;;;;1.31;99.01;94986.75;5136945;27;965;-55
2023/12/20 10:49:40;;;;;;;;;;;;;;;1.41;99.44;94975.56;5137017;27;1043;-56
2023/12/20 10:52:07;;;;;;;;;;;;;;;1.36;97.85;94973.25;5136976;27;1182;-55
2023/12/20 10:54:33;;;;;;;;;;;;;;;1.36;99.36;94966.19;5136259;27;1913;-55
2023/12/20 10:57:00;;;;;;;;;;;;;;;1.44;99.50;94960.38;5136824;27;1041;-56
2023/12/20 10:59:27;;;;;;;;;;;;;;;1.52;98.69;94958.03;5136505;27;1072;-55
2023/12/20 11:01:55;;;;;;;;;;;;;;;1.62;98.44;94955.56;5136056;27;1184;-56
2023/12/20 11:04:26;;;;;;;;;;;;;;;1.64;99.20;94953.66;5135985;27;1382;-56
2023/12/20 11:06:59;;;;;;;;;;;;;;;1.78;98.48;94949.16;5136201;27;1314;-55
2023/12/20 11:09:29;;;;;;;;;;;;;;;1.86;97.47;94946.81;5133426;27;1312;-55
2023/12/20 11:12:13;;;;;;;;;;;;;;;1.97;96.62;94935.47;5136118;27;1239;-56
2023/12/20 11:14:47;;;;;;;;;;;;;;;1.84;97.98;94939.03;5134950;27;1914;-55
2023/12/20 11:17:13;;;;;;;;;;;;;;;1.87;97.20;94930.03;5135773;27;1223;-55
2023/12/20 11:19:50;;;;;;;;;;;;;;;1.63;97.00;94919.50;5135520;27;1303;-55
2023/12/20 11:22:16;;;;;;;;;;;;;;;1.91;98.36;94923.59;5135849;27;1236;-55
2023/12/20 11:24:44;;;;;;;;;;;;;;;1.72;97.23;94919.66;5135526;27;1259;-55
2023/12/20 11:27:10;;;;;;;;;;;;;;;1.79;99.11;94925.34;5135515;27;1227;-56
2023/12/20 11:29:36;;;;;;;;;;;;;;;1.68;100.00;94907.66;5135452;27;1227;-55
2023/12/20 11:32:02;;;;;;;;;;;;;;;1.60;100.00;94893.41;5135215;27;1310;-55
2023/12/20 11:34:31;;;;;;;;;;;;;;;1.78;98.67;94899.91;5135533;27;2001;-55
2023/12/20 11:36:59;;;;;;;;;;;;;;;2.01;98.95;94886.81;5134824;27;1283;-55
2023/12/20 11:39:25;;;;;;;;;;;;;;;1.91;97.90;94876.97;5132804;27;1124;-55
2023/12/20 11:41:51;;;;;;;;;;;;;;;1.84;98.27;94878.41;5135403;27;1276;-55
2023/12/20 11:44:17;;;;;;;;;;;;;;;1.81;99.99;94875.16;5135332;27;1236;-56
2023/12/20 11:47:50;;;;;;;;;;;;;;;1.63;100.00;94866.78;5117019;27;1300863;-55
2023/12/20 11:50:20;;;;;;;;;;;;;;;1.67;100.00;94863.84;5152169;27;1029;-55
2023/12/20 11:52:46;;;;;;;;;;;;;;;1.95;100.00;94857.34;5152320;27;1016;-55
2023/12/20 11:55:12;;;;;;;;;;;;;;;1.83;99.65;94857.41;5151925;27;1224;-55
2023/12/20 11:57:38;;;;;;;;;;;;;;;1.91;99.52;94855.88;5151216;27;1046;-55
2023/12/20 12:00:06;;;;;;;;;;;;;;;2.06;99.88;94848.59;5152125;27;1111;-55
2023/12/20 12:02:32;;;;;;;;;;;;;;;2.11;98.96;94848.25;5152306;27;1035;-54
2023/12/20 12:04:59;;;;;;;;;;;;;;;2.24;98.19;94834.94;5152264;27;968;-55
2023/12/20 12:07:25;;;;;;;;;;;;;;;2.26;97.66;94830.41;5152100;27;1991;-55
2023/12/20 12:09:51;;;;;;;;;;;;;;;2.19;99.39;94834.47;5145378;27;1959;-56
2023/12/20 12:12:19;;;;;;;;;;;;;;;2.29;98.73;94838.06;5140739;27;1251;-55
2023/12/20 12:14:45;;;;;;;;;;;;;;;2.21;99.11;94827.28;5142577;27;1302;-55
2023/12/20 12:17:12;;;;;;;;;;;;;;;2.28;98.10;94823.22;5140843;27;1231;-55
2023/12/20 12:19:39;;;;;;;;;;;;;;;2.38;97.87;94821.53;5140209;27;1275;-56
2023/12/20 12:22:12;;;;;;;;;;;;;;;2.24;99.26;94806.78;5141878;27;1362;-56
2023/12/20 12:24:39;;;;;;;;;;;;;;;2.00;100.00;94803.41;5141650;27;1430;-56
2023/12/20 12:27:06;;;;;;;;;;;;;;;1.97;100.00;94807.09;5139593;27;2005;-56
2023/12/20 12:29:32;;;;;;;;;;;;;;;2.05;100.00;94799.47;5144133;27;1163;-55
2023/12/20 12:31:58;;;;;;;;;;;;;;;1.97;100.00;94793.91;5141036;27;2000;-55
2023/12/20 12:34:24;;;;;;;;;;;;;;;1.81;100.00;94789.00;5138270;27;1334;-55
2023/12/20 12:36:51;;;;;;;;;;;;;;;1.87;100.00;94788.50;5141607;27;1281;-55
2023/12/20 12:39:17;;;;;;;;;;;;;;;1.85;100.00;94789.59;5140855;27;1290;-56
2023/12/20 12:41:43;;;;;;;;;;;;;;;1.84;100.00;94785.25;5139657;27;1342;-56
2023/12/20 12:44:09;;;;;;;;;;;;;;;1.99;100.00;94778.81;5141467;27;1286;-57
2023/12/20 12:46:35;;;;;;;;;;;;;;;1.83;100.00;94771.25;5138994;27;1914;-57
2023/12/20 12:49:01;;;;;;;;;;;;;;;1.71;100.00;94773.03;5139874;27;1251;-56
2023/12/20 12:51:27;;;;;;;;;;;;;;;1.79;100.00;94782.16;5141502;27;1318;-56
2023/12/20 12:53:53;;;;;;;;;;;;;;;2.01;100.00;94773.44;5137847;27;1311;-56
2023/12/20 12:56:21;;;;;;;;;;;;;;;1.97;100.00;94772.81;5140977;27;1172;-56
2023/12/20 12:58:47;;;;;;;;;;;;;;;2.14;100.00;94768.88;5128264;27;1255;-56